Time;durP1;ratioP1;P1;durP2;ratioP2;P2;SDS_P1;SDS_P2;PMS_P1;PMS_P2;Temp;Humidity;BMP_temperature;BMP_pressure;BME280_temperature;BME280_humidity;BME280_pressure;Samples;Min_cycle;Max_cycle;Signal;HPM_P1;HPM_P2
2023/12/03 00:01:36;;;;;;;97.25;34.45;;;;;;;1.57;74.57;100596.06;5068300;28;20029;-81
2023/12/03 00:04:02;;;;;;;66.40;28.83;;;;;;;1.55;74.88;100587.31;5068761;28;20032;-79
2023/12/03 00:06:28;;;;;;;60.30;27.73;;;;;;;1.51;75.10;100588.03;5068381;28;20646;-80
2023/12/03 00:08:53;;;;;;;100.60;32.03;;;;;;;1.49;75.34;100587.97;5068592;28;20112;-80
2023/12/03 00:11:19;;;;;;;71.73;28.90;;;;;;;1.46;74.97;100586.97;5068372;28;20066;-80
2023/12/03 00:13:44;;;;;;;98.03;32.73;;;;;;;1.41;75.21;100587.69;5068407;28;20028;-81
2023/12/03 00:16:10;;;;;;;65.67;28.10;;;;;;;1.38;75.71;100592.75;5068516;28;20266;-81
2023/12/03 00:18:35;;;;;;;59.53;27.20;;;;;;;1.37;75.34;100596.19;5069484;28;20103;-80
2023/12/03 00:21:00;;;;;;;70.63;29.43;;;;;;;1.37;75.12;100598.78;5072352;28;20105;-81
2023/12/03 00:23:26;;;;;;;65.30;28.83;;;;;;;1.37;75.16;100597.88;5072326;28;20035;-81
2023/12/03 00:25:51;;;;;;;80.95;30.27;;;;;;;1.36;74.84;100583.13;5071991;28;20020;-81
2023/12/03 00:28:16;;;;;;;101.73;35.97;;;;;;;1.36;75.21;100581.44;5072481;28;20714;-80
2023/12/03 00:30:42;;;;;;;71.07;27.83;;;;;;;1.37;75.17;100587.50;5071763;28;20024;-79
2023/12/03 00:33:07;;;;;;;64.03;27.43;;;;;;;1.35;75.56;100587.47;5072367;28;20016;-79
2023/12/03 00:35:33;;;;;;;61.23;25.83;;;;;;;1.35;75.15;100587.47;5072336;28;20037;-80
2023/12/03 00:37:58;;;;;;;90.68;31.85;;;;;;;1.34;75.18;100592.56;5071876;28;20067;-79
2023/12/03 00:40:23;;;;;;;57.10;23.93;;;;;;;1.33;75.68;100602.09;5070638;28;20059;-79
2023/12/03 00:42:49;;;;;;;68.17;26.57;;;;;;;1.31;75.46;100598.50;5072047;28;20068;-78
2023/12/03 00:45:14;;;;;;;76.90;29.33;;;;;;;1.32;74.66;100600.28;5071834;28;20522;-79
2023/12/03 00:47:40;;;;;;;88.45;30.90;;;;;;;1.30;75.00;100594.16;5072082;28;20456;-79
2023/12/03 00:50:05;;;;;;;72.87;29.20;;;;;;;1.29;75.57;100594.97;5071563;28;20044;-79
2023/12/03 00:52:31;;;;;;;82.03;30.40;;;;;;;1.27;75.13;100596.63;5071805;28;20039;-79
2023/12/03 00:54:56;;;;;;;64.47;26.40;;;;;;;1.23;74.88;100600.84;5071754;28;20024;-79
2023/12/03 00:57:22;;;;;;;77.33;28.13;;;;;;;1.20;75.13;100602.41;5071719;28;20029;-79
2023/12/03 00:59:47;;;;;;;214.13;53.10;;;;;;;1.18;75.63;100591.09;5071508;28;20037;-79
2023/12/03 01:02:12;;;;;;;107.03;38.10;;;;;;;1.15;75.68;100591.84;5071363;28;20402;-78
2023/12/03 01:04:38;;;;;;;185.90;47.53;;;;;;;1.13;75.62;100589.22;5071985;28;20098;-79
2023/12/03 01:07:03;;;;;;;147.27;40.13;;;;;;;1.13;75.26;100589.22;5071462;28;20039;-79
2023/12/03 01:09:30;;;;;;;102.80;33.37;;;;;;;1.11;75.86;100590.84;5071002;28;20131;-79
2023/12/03 01:11:57;;;;;;;91.55;31.70;;;;;;;1.10;75.46;100588.19;5071379;28;20028;-79
2023/12/03 01:14:23;;;;;;;89.55;34.13;;;;;;;1.09;75.30;100596.78;5071358;28;20583;-79
2023/12/03 01:16:48;;;;;;;104.60;35.57;;;;;;;1.09;75.16;100596.78;5071313;28;20036;-80
2023/12/03 01:19:14;;;;;;;76.70;29.77;;;;;;;1.07;75.10;100601.91;5071257;28;20028;-80
2023/12/03 01:21:39;;;;;;;77.80;31.50;;;;;;;1.06;75.09;100605.31;5071043;28;20032;-80
2023/12/03 01:24:05;;;;;;;199.93;48.33;;;;;;;1.05;75.51;100600.97;5070484;28;20090;-81
2023/12/03 01:26:30;;;;;;;132.27;41.17;;;;;;;1.02;75.90;100595.66;5070828;28;20036;-80
2023/12/03 01:28:56;;;;;;;245.90;60.37;;;;;;;1.02;75.30;100605.16;5070873;28;20075;-81
2023/12/03 01:31:21;;;;;;;84.47;32.17;;;;;;;0.98;75.36;100601.56;5070444;28;20120;-80
2023/12/03 01:33:47;;;;;;;168.87;45.67;;;;;;;0.96;76.01;100605.78;5070844;28;20423;-80
2023/12/03 01:36:14;;;;;;;80.20;31.33;;;;;;;0.94;75.91;100607.44;5069753;28;20078;-81
2023/12/03 01:38:40;;;;;;;69.72;28.45;;;;;;;0.90;75.77;100601.22;5070815;28;20027;-80
2023/12/03 01:41:06;;;;;;;127.63;36.77;;;;;;;0.90;75.87;100601.22;5070972;28;20024;-81
2023/12/03 01:43:31;;;;;;;97.00;32.65;;;;;;;0.90;76.21;100597.78;5070406;28;20108;-81
2023/12/03 01:45:56;;;;;;;111.43;36.33;;;;;;;0.88;75.24;100592.50;5070596;28;20032;-81
2023/12/03 01:48:22;;;;;;;110.97;33.23;;;;;;;0.85;75.07;100588.09;5070997;28;20021;-78
2023/12/03 01:50:49;;;;;;;63.23;24.50;;;;;;;0.85;75.32;100595.88;5070541;28;20274;-81
2023/12/03 01:53:16;;;;;;;60.28;25.50;;;;;;;0.83;75.79;100600.09;5070327;28;20463;-79
2023/12/03 01:55:43;;;;;;;153.27;40.97;;;;;;;0.83;75.63;100602.69;5070427;28;20025;-81
2023/12/03 01:58:08;;;;;;;116.55;35.00;;;;;;;0.81;76.12;100601.75;5070395;28;20103;-80
2023/12/03 02:00:34;;;;;;;58.97;24.90;;;;;;;0.77;75.79;100605.03;5070197;28;20531;-81
2023/12/03 02:02:59;;;;;;;55.33;23.83;;;;;;;0.74;75.88;100601.44;5069957;28;20516;-81
2023/12/03 02:05:25;;;;;;;55.20;23.73;;;;;;;0.72;75.85;100601.38;5070175;28;20020;-81
2023/12/03 02:07:50;;;;;;;62.73;25.43;;;;;;;0.71;75.90;100600.47;5070063;28;20028;-80
2023/12/03 02:10:15;;;;;;;58.80;24.67;;;;;;;0.65;75.63;100605.41;5070412;28;20499;-80
2023/12/03 02:12:41;;;;;;;59.35;23.27;;;;;;;0.63;76.09;100607.06;5069950;28;20028;-80
2023/12/03 02:15:07;;;;;;;42.87;19.20;;;;;;;0.61;75.55;100608.69;5070203;28;20535;-80
2023/12/03 02:17:32;;;;;;;45.05;21.33;;;;;;;0.64;76.09;100608.81;5069864;28;20469;-80
2023/12/03 02:19:58;;;;;;;60.10;23.47;;;;;;;0.64;75.43;100611.41;5069881;28;20035;-80
2023/12/03 02:22:23;;;;;;;54.50;23.17;;;;;;;0.61;75.80;100618.19;5069992;28;20093;-81
2023/12/03 02:24:48;;;;;;;43.40;20.23;;;;;;;0.57;75.63;100620.63;5069481;28;20102;-80
2023/12/03 02:27:14;;;;;;;51.47;21.63;;;;;;;0.58;75.76;100618.94;5069833;28;20390;-81
2023/12/03 02:29:39;;;;;;;65.43;23.37;;;;;;;0.55;75.53;100622.28;5069918;28;20028;-81
2023/12/03 02:32:05;;;;;;;50.30;21.58;;;;;;;0.53;76.26;100618.75;5069872;28;20064;-81
2023/12/03 02:34:30;;;;;;;50.67;21.33;;;;;;;0.53;76.18;100625.66;5069992;28;20086;-80
2023/12/03 02:36:55;;;;;;;126.13;34.03;;;;;;;0.52;76.19;100624.75;5069596;28;20071;-80
2023/12/03 02:39:21;;;;;;;68.27;25.43;;;;;;;0.49;76.12;100629.81;5069686;28;20515;-80
2023/12/03 02:41:46;;;;;;;84.73;26.93;;;;;;;0.48;75.82;100627.13;5068515;28;20032;-81
2023/12/03 02:44:11;;;;;;;117.93;34.33;;;;;;;0.46;75.93;100626.19;5069097;28;20951;-80
2023/12/03 02:46:37;;;;;;;98.43;29.07;;;;;;;0.45;75.87;100630.50;5069427;28;20020;-80
2023/12/03 02:49:02;;;;;;;49.83;22.67;;;;;;;0.45;76.19;100638.25;5069803;28;20052;-81
2023/12/03 02:51:28;;;;;;;50.70;20.43;;;;;;;0.42;75.67;100638.13;5069536;28;20028;-80
2023/12/03 02:53:53;;;;;;;53.75;22.08;;;;;;;0.39;76.38;100638.00;5069289;28;20023;-80
2023/12/03 02:56:18;;;;;;;53.37;20.97;;;;;;;0.37;76.13;100639.66;5069223;28;20037;-80
2023/12/03 02:58:44;;;;;;;45.83;20.60;;;;;;;0.32;75.58;100646.31;5067863;28;20400;-81
2023/12/03 03:01:09;;;;;;;46.93;20.70;;;;;;;0.24;76.04;100639.09;5069324;28;20032;-81
2023/12/03 03:03:35;;;;;;;44.20;20.92;;;;;;;0.23;75.81;100644.19;5068847;28;20136;-80
2023/12/03 03:06:00;;;;;;;56.73;20.37;;;;;;;0.26;75.55;100641.78;5069329;28;20032;-80
2023/12/03 03:08:26;;;;;;;64.20;24.30;;;;;;;0.27;75.95;100639.22;5069526;28;20048;-80
2023/12/03 03:10:52;;;;;;;57.45;22.27;;;;;;;0.27;75.83;100639.22;5069194;28;20037;-81
2023/12/03 03:13:17;;;;;;;61.13;24.70;;;;;;;0.28;75.80;100647.91;5069116;28;20036;-81
2023/12/03 03:15:42;;;;;;;60.97;24.27;;;;;;;0.27;76.22;100647.00;5069020;28;20548;-80
2023/12/03 03:18:08;;;;;;;56.47;22.95;;;;;;;0.25;75.80;100646.06;5069019;28;20020;-80
2023/12/03 03:20:34;;;;;;;47.87;21.87;;;;;;;0.25;76.13;100655.53;5069044;28;20086;-80
2023/12/03 03:23:00;;;;;;;62.97;22.55;;;;;;;0.26;76.38;100649.53;5068052;28;20512;-81
2023/12/03 03:25:25;;;;;;;79.77;23.80;;;;;;;0.25;75.92;100651.22;5068335;28;20068;-81
2023/12/03 03:27:50;;;;;;;92.27;24.30;;;;;;;0.23;75.88;100652.88;5069233;28;20517;-80
2023/12/03 03:30:16;;;;;;;84.87;23.67;;;;;;;0.20;76.37;100659.59;5068763;28;20033;-81
2023/12/03 03:32:41;;;;;;;97.33;25.53;;;;;;;0.18;76.07;100656.97;5069060;28;20059;-81
2023/12/03 03:35:07;;;;;;;72.10;24.73;;;;;;;0.18;76.20;100649.19;5068824;28;20025;-81
2023/12/03 03:37:33;;;;;;;63.90;22.50;;;;;;;0.18;76.74;100644.03;5068610;28;20032;-81
2023/12/03 03:39:58;;;;;;;69.00;22.53;;;;;;;0.16;76.87;100644.75;5069176;28;20024;-80
2023/12/03 03:42:23;;;;;;;72.15;24.15;;;;;;;0.12;76.95;100646.31;5068795;28;20115;-79
2023/12/03 03:44:49;;;;;;;65.47;22.90;;;;;;;0.12;76.33;100649.81;5068767;28;20024;-80
2023/12/03 03:47:15;;;;;;;79.47;22.50;;;;;;;0.13;76.11;100651.56;5069074;28;20117;-79
2023/12/03 03:49:40;;;;;;;79.18;20.70;;;;;;;0.13;76.62;100638.63;5069371;28;20103;-79
2023/12/03 03:52:06;;;;;;;85.87;19.93;;;;;;;0.08;76.79;100657.34;5068416;28;20044;-81
2023/12/03 03:54:31;;;;;;;63.80;20.53;;;;;;;0.01;76.95;100657.91;5071123;28;20029;-79
2023/12/03 03:56:57;;;;;;;59.13;20.47;;;;;;;-0.01;76.92;100666.50;5072643;28;20283;-80
2023/12/03 03:59:23;;;;;;;55.70;20.50;;;;;;;0.01;76.98;100663.09;5071008;28;20077;-80
2023/12/03 04:01:48;;;;;;;46.58;18.42;;;;;;;0.02;76.96;100662.25;5072750;28;20029;-80
2023/12/03 04:04:14;;;;;;;52.03;19.43;;;;;;;-0.02;76.90;100662.13;5072644;28;20044;-80
2023/12/03 04:06:40;;;;;;;46.83;17.43;;;;;;;-0.05;76.83;100672.34;5072554;28;20029;-79
2023/12/03 04:09:06;;;;;;;46.03;17.65;;;;;;;-0.07;76.73;100666.22;5072683;28;20044;-80
2023/12/03 04:11:37;;;;;;;48.85;18.30;;;;;;;-0.04;76.62;100670.63;5072513;28;20036;-80
2023/12/03 04:14:03;;;;;;;52.38;19.83;;;;;;;-0.03;76.92;100675.00;5070983;28;20048;-80
2023/12/03 04:16:28;;;;;;;49.73;18.70;;;;;;;-0.04;76.89;100668.94;5072001;28;20072;-80
2023/12/03 04:18:53;;;;;;;63.60;21.03;;;;;;;-0.02;77.03;100656.97;5072571;28;20031;-80
2023/12/03 04:21:19;;;;;;;62.88;20.83;;;;;;;0.00;77.08;100659.63;5072270;28;20040;-80
2023/12/03 04:23:44;;;;;;;68.90;20.20;;;;;;;-0.05;77.13;100662.00;5072095;28;20673;-80
2023/12/03 04:26:11;;;;;;;62.10;21.40;;;;;;;-0.05;77.06;100666.28;5072235;28;20033;-80
2023/12/03 04:28:39;;;;;;;51.20;20.92;;;;;;;-0.04;77.00;100668.94;5072169;28;20024;-80
2023/12/03 04:31:05;;;;;;;47.38;19.35;;;;;;;-0.03;76.54;100664.63;5071905;28;20036;-80
2023/12/03 04:33:30;;;;;;;46.60;18.83;;;;;;;-0.02;76.31;100667.31;5071963;28;20396;-80
2023/12/03 04:35:55;;;;;;;50.83;19.07;;;;;;;-0.06;76.47;100665.41;5072070;28;20109;-79
2023/12/03 04:38:21;;;;;;;44.60;18.57;;;;;;;-0.13;76.76;100665.03;5071933;28;20036;-80
2023/12/03 04:40:46;;;;;;;43.63;17.93;;;;;;;-0.18;76.58;100670.00;5071958;28;20512;-80
2023/12/03 04:43:12;;;;;;;45.20;18.07;;;;;;;-0.22;77.09;100668.09;5071983;28;20278;-80
2023/12/03 04:45:37;;;;;;;47.47;18.63;;;;;;;-0.22;76.53;100668.09;5071599;28;20035;-80
2023/12/03 04:48:03;;;;;;;42.67;17.03;;;;;;;-0.25;76.53;100668.81;5071457;28;20455;-80
2023/12/03 04:50:28;;;;;;;38.80;17.17;;;;;;;-0.26;76.49;100666.19;5071752;28;20024;-80
2023/12/03 04:52:53;;;;;;;88.00;25.67;;;;;;;-0.26;76.67;100673.94;5071787;28;20017;-80
2023/12/03 04:55:19;;;;;;;49.50;19.83;;;;;;;-0.32;76.65;100672.84;5070332;28;20064;-80
2023/12/03 04:57:44;;;;;;;47.30;20.23;;;;;;;-0.36;76.58;100675.22;5071748;28;20070;-80
2023/12/03 05:00:10;;;;;;;39.53;17.40;;;;;;;-0.39;76.94;100673.34;5071591;28;20086;-80
2023/12/03 05:02:36;;;;;;;43.85;18.55;;;;;;;-0.38;76.51;100677.72;5071508;28;20453;-80
2023/12/03 05:05:02;;;;;;;39.78;17.45;;;;;;;-0.39;76.49;100668.19;5070074;28;20035;-80
2023/12/03 05:07:28;;;;;;;41.37;17.83;;;;;;;-0.39;76.54;100675.94;5071568;28;20108;-80
2023/12/03 05:09:53;;;;;;;58.63;21.03;;;;;;;-0.40;76.15;100668.13;5071303;28;21026;-80
2023/12/03 05:12:19;;;;;;;47.53;17.83;;;;;;;-0.45;76.53;100676.56;5071603;28;20107;-80
2023/12/03 05:14:44;;;;;;;43.60;18.67;;;;;;;-0.46;76.97;100668.72;5071091;28;20028;-81
2023/12/03 05:17:10;;;;;;;65.77;22.33;;;;;;;-0.47;76.91;100667.84;5071651;28;20108;-80
2023/12/03 05:19:35;;;;;;;48.07;18.57;;;;;;;-0.48;76.45;100676.44;5071351;28;20103;-80
2023/12/03 05:22:01;;;;;;;83.13;24.77;;;;;;;-0.47;76.84;100679.88;5071590;28;20027;-81
2023/12/03 05:24:26;;;;;;;46.83;19.90;;;;;;;-0.48;76.05;100680.69;5070563;28;20043;-81
2023/12/03 05:26:51;;;;;;;45.03;19.20;;;;;;;-0.55;76.31;100674.34;5071102;28;20033;-81
2023/12/03 05:29:17;;;;;;;46.03;19.17;;;;;;;-0.62;76.34;100680.03;5070868;28;20028;-81
2023/12/03 05:31:44;;;;;;;42.50;17.37;;;;;;;-0.66;76.83;100686.75;5069625;28;20060;-81
2023/12/03 05:34:10;;;;;;;41.43;16.07;;;;;;;-0.65;76.83;100679.91;5071144;28;20271;-81
2023/12/03 05:36:35;;;;;;;42.10;15.55;;;;;;;-0.64;77.04;100677.38;5071128;28;20508;-81
2023/12/03 05:39:00;;;;;;;66.27;18.40;;;;;;;-0.63;76.66;100678.28;5070969;28;20110;-81
2023/12/03 05:41:26;;;;;;;44.23;16.33;;;;;;;-0.61;76.83;100677.50;5070853;28;20031;-81
2023/12/03 05:43:51;;;;;;;35.97;13.70;;;;;;;-0.60;76.57;100681.91;5070305;28;20450;-81
2023/12/03 05:46:17;;;;;;;101.15;25.20;;;;;;;-0.61;76.53;100680.09;5069432;28;20056;-81
2023/12/03 05:48:42;;;;;;;38.80;16.17;;;;;;;-0.65;76.27;100677.31;5070394;28;20024;-81
2023/12/03 05:51:09;;;;;;;128.50;26.60;;;;;;;-0.70;76.65;100684.84;5070844;28;20024;-80
2023/12/03 05:53:35;;;;;;;281.38;51.65;;;;;;;-0.71;76.30;100683.06;5070738;28;20112;-81
2023/12/03 05:56:00;;;;;;;47.77;16.70;;;;;;;-0.71;76.66;100677.91;5070583;28;20115;-81
2023/12/03 05:58:25;;;;;;;42.03;14.97;;;;;;;-0.74;76.84;100678.63;5070310;28;20032;-82
2023/12/03 06:00:51;;;;;;;29.03;13.07;;;;;;;-0.73;76.70;100669.19;5070509;28;20075;-81
2023/12/03 06:03:19;;;;;;;27.53;12.70;;;;;;;-0.74;76.90;100673.44;5069897;28;20267;-81
2023/12/03 06:05:44;;;;;;;22.88;10.52;;;;;;;-0.73;76.90;100671.75;5070010;28;20021;-81
2023/12/03 06:08:09;;;;;;;33.30;11.90;;;;;;;-0.72;77.17;100673.53;5070265;28;20112;-81
2023/12/03 06:10:35;;;;;;;92.30;22.67;;;;;;;-0.73;76.19;100679.53;5070104;28;20032;-81
2023/12/03 06:13:00;;;;;;;33.73;12.47;;;;;;;-0.73;76.95;100689.88;5070327;28;20591;-80
2023/12/03 06:15:26;;;;;;;33.63;12.27;;;;;;;-0.75;76.41;100691.50;5070126;28;20020;-81
2023/12/03 06:17:51;;;;;;;24.47;10.70;;;;;;;-0.75;76.70;100681.16;5070044;28;20024;-81
2023/12/03 06:20:17;;;;;;;65.93;16.57;;;;;;;-0.74;76.79;100682.94;5069777;28;20291;-80
2023/12/03 06:22:42;;;;;;;49.40;15.60;;;;;;;-0.74;76.41;100685.50;5070032;28;20017;-81
2023/12/03 06:25:08;;;;;;;40.78;14.05;;;;;;;-0.78;76.70;100681.00;5069410;28;20032;-80
2023/12/03 06:27:34;;;;;;;38.70;13.00;;;;;;;-0.79;76.53;100684.41;5070136;28;20412;-81
2023/12/03 06:29:59;;;;;;;41.47;13.13;;;;;;;-0.79;76.82;100680.09;5069872;28;20036;-81
2023/12/03 06:32:25;;;;;;;82.60;20.17;;;;;;;-0.80;76.37;100685.22;5069847;28;20024;-81
2023/12/03 06:34:51;;;;;;;37.70;13.10;;;;;;;-0.82;76.65;100684.25;5069830;28;20396;-81
2023/12/03 06:37:17;;;;;;;33.27;12.57;;;;;;;-0.86;76.62;100685.81;5069803;28;20028;-81
2023/12/03 06:39:42;;;;;;;75.87;20.47;;;;;;;-0.88;76.50;100684.84;5069156;28;20392;-81
2023/12/03 06:42:07;;;;;;;104.73;24.97;;;;;;;-0.90;76.56;100681.28;5069512;28;20093;-80
2023/12/03 06:44:33;;;;;;;40.67;13.50;;;;;;;-0.92;76.37;100675.16;5069377;28;20028;-81
2023/12/03 06:46:58;;;;;;;63.67;17.30;;;;;;;-0.92;76.59;100682.91;5069560;28;20031;-80
2023/12/03 06:49:24;;;;;;;62.70;18.23;;;;;;;-0.92;76.72;100682.91;5069682;28;20424;-81
2023/12/03 06:51:49;;;;;;;87.67;22.20;;;;;;;-0.93;76.62;100687.19;5069351;28;20099;-81
2023/12/03 06:54:15;;;;;;;67.70;19.20;;;;;;;-0.93;76.38;100678.56;5070018;28;20722;-81
2023/12/03 06:56:40;;;;;;;198.70;38.53;;;;;;;-0.94;76.72;100681.97;5069272;28;20473;-81
2023/12/03 06:59:06;;;;;;;99.27;22.33;;;;;;;-0.97;76.45;100674.94;5069111;28;20557;-81
2023/12/03 07:01:32;;;;;;;51.17;16.75;;;;;;;-0.97;76.65;100674.03;5068800;28;20036;-81
2023/12/03 07:03:57;;;;;;;148.10;32.50;;;;;;;-1.01;76.50;100673.00;5069546;28;20469;-81
2023/12/03 07:06:22;;;;;;;209.17;40.20;;;;;;;-1.04;76.28;100667.69;5069264;28;20488;-81
2023/12/03 07:08:48;;;;;;;115.27;27.73;;;;;;;-1.07;76.82;100673.59;5068979;28;20025;-81
2023/12/03 07:11:13;;;;;;;78.18;19.77;;;;;;;-1.06;76.75;100679.66;5069356;28;20029;-81
2023/12/03 07:13:39;;;;;;;42.80;14.27;;;;;;;-1.06;76.68;100679.66;5069175;28;20525;-82
2023/12/03 07:16:05;;;;;;;29.50;12.27;;;;;;;-1.07;76.95;100678.75;5069064;28;20024;-81
2023/12/03 07:18:31;;;;;;;45.03;12.95;;;;;;;-1.08;76.69;100691.63;5068622;28;20033;-82
2023/12/03 07:20:56;;;;;;;28.37;10.37;;;;;;;-1.09;76.73;100688.13;5069228;28;20499;-81
2023/12/03 07:23:21;;;;;;;26.20;10.80;;;;;;;-1.08;76.84;100691.63;5068927;28;20055;-80
2023/12/03 07:25:47;;;;;;;22.20;9.65;;;;;;;-1.06;76.57;100695.16;5068521;28;20032;-80
2023/12/03 07:28:12;;;;;;;25.30;9.90;;;;;;;-1.04;76.97;100698.72;5068684;28;20044;-81
2023/12/03 07:30:38;;;;;;;43.80;12.20;;;;;;;-1.03;76.79;100695.31;5068936;28;20090;-81
2023/12/03 07:33:03;;;;;;;35.27;11.80;;;;;;;-1.01;76.47;100693.69;5068988;28;20451;-81
2023/12/03 07:35:28;;;;;;;25.47;10.10;;;;;;;-1.01;76.28;100684.22;5068688;28;20034;-81
2023/12/03 07:37:55;;;;;;;19.93;9.03;;;;;;;-1.01;76.59;100680.75;5068989;28;20024;-82
2023/12/03 07:40:20;;;;;;;27.52;10.60;;;;;;;-0.96;76.36;100681.00;5068665;28;20086;-81
2023/12/03 07:42:46;;;;;;;25.00;10.90;;;;;;;-0.96;76.56;100691.34;5068814;28;20040;-80
2023/12/03 07:45:11;;;;;;;23.50;10.82;;;;;;;-0.89;76.57;100683.94;5068912;28;20029;-81
2023/12/03 07:47:37;;;;;;;23.53;10.70;;;;;;;-0.75;76.57;100681.16;5068946;28;20028;-81
2023/12/03 07:50:02;;;;;;;22.50;10.43;;;;;;;-0.58;76.26;100689.72;5069104;28;20424;-81
2023/12/03 07:52:28;;;;;;;24.80;10.73;;;;;;;-0.38;75.92;100685.47;5068840;28;20024;-81
2023/12/03 07:54:53;;;;;;;19.67;9.13;;;;;;;-0.22;76.12;100684.53;5068939;28;20482;-81
2023/12/03 07:57:18;;;;;;;18.83;8.20;;;;;;;-0.05;75.56;100677.53;5068181;28;20029;-81
2023/12/03 07:59:44;;;;;;;19.13;8.83;;;;;;;0.10;74.86;100682.50;5064295;28;20036;-81
2023/12/03 08:02:09;;;;;;;21.33;8.90;;;;;;;0.24;75.12;100683.13;5067944;28;20037;-82
2023/12/03 08:04:35;;;;;;;21.85;9.20;;;;;;;0.38;74.54;100673.38;5068332;28;20073;-81
2023/12/03 08:07:00;;;;;;;22.53;9.80;;;;;;;0.49;74.93;100680.75;5068124;28;20036;-82
2023/12/03 08:09:25;;;;;;;22.77;10.40;;;;;;;0.55;75.62;100681.88;5068812;28;20066;-81
2023/12/03 08:11:53;;;;;;;20.43;9.70;;;;;;;0.63;74.35;100690.00;5068479;28;20108;-81
2023/12/03 08:14:18;;;;;;;26.25;10.95;;;;;;;0.70;75.14;100685.97;5068125;28;20401;-81
2023/12/03 08:16:43;;;;;;;22.17;9.23;;;;;;;0.81;74.88;100684.69;5068578;28;20032;-80
2023/12/03 08:19:09;;;;;;;21.05;9.77;;;;;;;0.94;74.73;100685.22;5068021;28;20025;-80
2023/12/03 08:21:36;;;;;;;21.93;9.83;;;;;;;1.05;74.69;100675.31;5068486;28;20166;-80
2023/12/03 08:24:03;;;;;;;23.60;8.60;;;;;;;1.18;74.40;100674.97;5068180;28;20041;-80
2023/12/03 08:26:28;;;;;;;19.90;8.53;;;;;;;1.32;73.77;100674.66;5068134;28;20036;-80
2023/12/03 08:28:54;;;;;;;21.25;8.50;;;;;;;1.46;74.24;100675.22;5066987;28;20607;-80
2023/12/03 08:31:22;;;;;;;17.97;8.60;;;;;;;1.59;74.23;100680.06;5067726;28;20173;-79
2023/12/03 08:33:47;;;;;;;16.98;7.75;;;;;;;1.71;73.51;100672.75;5068424;28;20052;-78
2023/12/03 08:36:18;;;;;;;21.43;8.60;;;;;;;1.86;74.20;100674.16;5068136;28;20102;-78
2023/12/03 08:38:43;;;;;;;18.15;8.02;;;;;;;1.95;74.23;100666.72;5062905;28;20029;-79
2023/12/03 08:41:09;;;;;;;19.77;9.13;;;;;;;2.01;73.59;100663.47;5071565;28;20039;-79
2023/12/03 08:43:34;;;;;;;20.63;8.93;;;;;;;2.06;74.67;100666.25;5071505;28;20056;-79
2023/12/03 08:45:59;;;;;;;20.50;9.27;;;;;;;2.09;74.16;100659.44;5071698;28;20267;-79
2023/12/03 08:48:25;;;;;;;23.30;9.57;;;;;;;2.13;74.16;100660.44;5071782;28;20071;-79
2023/12/03 08:50:50;;;;;;;25.57;10.40;;;;;;;2.18;74.09;100658.88;5071931;28;20024;-79
2023/12/03 08:53:15;;;;;;;24.47;10.73;;;;;;;2.21;75.05;100659.00;5071579;28;20046;-79
2023/12/03 08:55:41;;;;;;;19.87;9.43;;;;;;;2.25;74.71;100653.06;5071370;28;20029;-79
2023/12/03 08:58:06;;;;;;;23.30;11.07;;;;;;;2.31;74.34;100651.56;5071515;28;20293;-79
2023/12/03 09:00:32;;;;;;;25.00;11.20;;;;;;;2.35;74.39;100651.69;5070577;28;20034;-79
2023/12/03 09:02:57;;;;;;;23.57;10.47;;;;;;;2.43;74.73;100650.28;5070971;28;20082;-79
2023/12/03 09:05:22;;;;;;;18.10;8.37;;;;;;;2.58;74.59;100660.31;5069691;28;20139;-79
2023/12/03 09:07:48;;;;;;;20.73;8.82;;;;;;;2.71;74.86;100650.31;5071015;28;20028;-79
2023/12/03 09:10:13;;;;;;;23.80;9.90;;;;;;;2.83;74.52;100645.56;5071464;28;20110;-79
2023/12/03 09:12:39;;;;;;;19.60;9.53;;;;;;;2.92;74.31;100642.38;5069976;28;20028;-79
2023/12/03 09:15:05;;;;;;;20.85;8.93;;;;;;;3.00;74.29;100643.50;5071026;28;20016;-80
2023/12/03 09:17:32;;;;;;;21.05;9.68;;;;;;;3.04;74.72;100644.50;5070258;28;20025;-79
2023/12/03 09:19:57;;;;;;;23.27;10.30;;;;;;;3.11;74.54;100641.25;5071224;28;20031;-81
2023/12/03 09:22:23;;;;;;;23.60;10.82;;;;;;;3.24;74.25;100646.84;5070178;28;20115;-81
2023/12/03 09:24:48;;;;;;;22.20;10.57;;;;;;;3.36;74.80;100644.66;5070427;28;20481;-80
2023/12/03 09:27:14;;;;;;;21.13;9.73;;;;;;;3.46;74.49;100640.63;5070042;28;20021;-77
2023/12/03 09:29:39;;;;;;;25.00;12.00;;;;;;;3.55;74.40;100642.63;5070805;28;20044;-77
2023/12/03 09:32:04;;;;;;;26.10;11.07;;;;;;;3.59;74.35;100639.25;5064359;28;20086;-81
2023/12/03 09:34:30;;;;;;;24.73;11.23;;;;;;;3.64;74.49;100636.81;5069391;28;20373;-80
2023/12/03 09:36:56;;;;;;;23.60;11.50;;;;;;;3.67;74.22;100640.38;5070501;28;20024;-77
2023/12/03 09:39:22;;;;;;;23.48;11.00;;;;;;;3.78;74.35;100639.81;5069542;28;20036;-78
2023/12/03 09:41:49;;;;;;;23.93;11.70;;;;;;;3.88;74.22;100640.16;5070911;28;20032;-79
2023/12/03 09:44:27;;;;;;;28.00;12.25;;;;;;;4.04;74.46;100632.75;5070558;28;20034;-77
2023/12/03 09:46:54;;;;;;;26.17;11.23;;;;;;;4.17;74.26;100628.75;5068790;28;20039;-79
2023/12/03 09:49:23;;;;;;;24.15;11.82;;;;;;;4.26;73.97;100633.34;5072249;28;20527;-81
2023/12/03 09:51:49;;;;;;;23.52;12.45;;;;;;;4.37;74.58;100636.25;5060192;28;20072;-78
2023/12/03 09:54:15;;;;;;;25.05;11.70;;;;;;;4.53;74.42;100627.13;5062107;28;20089;-80
2023/12/03 09:56:42;;;;;;;25.20;11.53;;;;;;;4.70;74.34;100619.72;5070344;28;20796;-80
2023/12/03 09:59:10;;;;;;;23.20;11.25;;;;;;;4.81;73.96;100625.22;5068687;28;20512;-80
2023/12/03 10:01:39;;;;;;;27.30;11.35;;;;;;;4.89;73.59;100624.56;5075053;28;20024;-79
2023/12/03 10:04:05;;;;;;;23.80;11.33;;;;;;;4.99;73.96;100622.22;5070476;28;20434;-80
2023/12/03 10:06:34;;;;;;;28.67;11.52;;;;;;;5.14;74.17;100612.13;5070361;28;20028;-80
2023/12/03 10:09:00;;;;;;;21.75;10.57;;;;;;;5.23;73.34;100605.38;5064183;28;20028;-80
2023/12/03 10:11:28;;;;;;;23.20;10.70;;;;;;;5.32;73.92;100606.47;5070332;28;20089;-77
2023/12/03 10:13:54;;;;;;;26.30;10.10;;;;;;;5.41;74.16;100611.00;5070533;28;20480;-79
2023/12/03 10:16:22;;;;;;;22.30;10.07;;;;;;;5.59;73.20;100604.41;5070969;28;20033;-75
2023/12/03 10:18:49;;;;;;;21.70;9.85;;;;;;;5.71;73.06;100612.53;5063299;28;20037;-78
2023/12/03 10:21:15;;;;;;;26.33;10.40;;;;;;;5.86;73.38;100604.13;5050834;28;20036;-77
2023/12/03 10:23:40;;;;;;;26.63;10.73;;;;;;;6.04;73.33;100602.78;5061856;28;20036;-78
2023/12/03 10:26:13;;;;;;;24.17;11.40;;;;;;;6.22;72.78;100602.25;5068083;28;20024;-73
2023/12/03 10:28:39;;;;;;;20.97;9.93;;;;;;;6.37;72.52;100595.53;5062639;28;20056;-79
2023/12/03 10:31:10;;;;;;;22.05;9.45;;;;;;;6.40;72.93;100600.84;5061713;28;20105;-75
2023/12/03 10:33:36;;;;;;;21.20;9.68;;;;;;;6.45;72.48;100594.81;5069976;28;20020;-76
2023/12/03 10:36:02;;;;;;;21.65;9.65;;;;;;;6.54;72.87;100596.72;5070471;28;20017;-74
2023/12/03 10:38:38;;;;;;;21.67;9.93;;;;;;;6.66;72.60;100576.88;5069954;28;20090;-77
2023/12/03 10:41:06;;;;;;;22.80;10.05;;;;;;;6.75;71.68;100577.03;5064156;28;20070;-78
2023/12/03 10:43:34;;;;;;;22.20;9.85;;;;;;;6.82;71.96;100580.63;5068452;28;20028;-78
2023/12/03 10:45:59;;;;;;;21.15;9.40;;;;;;;6.80;71.77;100574.50;5069064;28;20024;-78
2023/12/03 10:48:27;;;;;;;23.13;9.87;;;;;;;6.90;71.74;100565.91;5069267;28;20564;-79
2023/12/03 10:50:57;;;;;;;20.00;9.32;;;;;;;6.99;71.45;100555.59;5067349;28;20051;-82
2023/12/03 10:53:24;;;;;;;20.23;9.20;;;;;;;7.11;71.05;100557.50;5061921;28;20111;-79
2023/12/03 10:55:50;;;;;;;17.10;8.03;;;;;;;7.08;70.91;100546.97;5069672;28;20027;-78
2023/12/03 10:58:19;;;;;;;18.02;8.43;;;;;;;7.11;70.44;100548.78;5067371;28;20095;-78
2023/12/03 11:00:55;;;;;;;19.52;8.80;;;;;;;7.18;71.15;100546.28;5067918;28;20033;-80
2023/12/03 11:03:46;;;;;;;18.45;9.00;;;;;;;7.32;70.83;100528.13;5066107;28;20051;-81
2023/12/03 11:06:14;;;;;;;19.33;8.25;;;;;;;7.42;70.42;100523.91;5067573;28;20107;-77
2023/12/03 11:08:40;;;;;;;19.13;8.23;;;;;;;7.54;70.26;100532.75;5067472;28;20108;-79